Time;durP1;ratioP1;P1;durP2;ratioP2;P2;SDS_P1;SDS_P2;PMS_P1;PMS_P2;Temp;Humidity;BMP_temperature;BMP_pressure;BME280_temperature;BME280_humidity;BME280_pressure;Samples;Min_cycle;Max_cycle;Signal;HPM_P1;HPM_P2
2022/08/29 03:41:46;;;;;;;;;;;;;;;;;;6236198;23;20372;-67
2022/08/29 03:44:12;;;;;;;;;;;;;;;;;;6242291;23;19919;-66
2022/08/29 03:46:38;;;;;;;;;;;;;;;;;;6241726;23;19937;-67
2022/08/29 03:49:04;;;;;;;;;;;;;;;;;;6241981;23;19912;-66
2022/08/29 03:51:30;;;;;;;;;;;;;;;;;;6242444;23;20319;-65
2022/08/29 03:53:56;;;;;;;;;;;;;;;;;;6241805;23;20339;-66
2022/08/29 03:56:21;;;;;;;;;;;;;;;;;;6242176;23;19941;-66
2022/08/29 03:58:47;;;;;;;;;;;;;;;;;;6241827;23;19907;-66
2022/08/29 04:01:15;;;;;;;;;;;;;;;;;;6242210;23;19907;-67
2022/08/29 04:03:41;;;;;;;;;;;;;;;;;;6241950;23;19907;-66
2022/08/29 04:06:06;;;;;;;;;;;;;;;;;;6241981;23;20006;-66
2022/08/29 04:08:33;;;;;;;;;;;;;;;;;;6241809;23;19922;-66
2022/08/29 04:10:58;;;;;;;;;;;;;;;;;;6215238;23;19914;-66
2022/08/29 04:13:24;;;;;;;;;;;;;;;;;;6215481;23;19908;-66
2022/08/29 04:15:50;;;;;;;;;;;;;;;;;;6241711;23;20260;-66
2022/08/29 04:18:16;;;;;;;;;;;;;;;;;;6242754;23;19908;-66
2022/08/29 04:20:43;;;;;;;;;;;;;;;;;;6241634;23;20008;-67
2022/08/29 04:23:11;;;;;;;;;;;;;;;;;;6242283;23;19911;-65
2022/08/29 04:25:36;;;;;;;;;;;;;;;;;;6241600;23;19977;-65
2022/08/29 04:28:02;;;;;;;;;;;;;;;;;;6242516;23;20307;-66
2022/08/29 04:30:28;;;;;;;;;;;;;;;;;;6243874;23;19919;-65
2022/08/29 04:32:54;;;;;;;;;;;;;;;;;;6243619;22;19908;-66
2022/08/29 04:35:19;;;;;;;;;;;;;;;;;;6243940;23;19908;-65
2022/08/29 04:37:45;;;;;;;;;;;;;;;;;;6243964;23;19935;-65
2022/08/29 04:40:12;;;;;;;;;;;;;;;;;;6243808;23;19907;-66
2022/08/29 04:42:38;;;;;;;;;;;;;;;;;;6216625;23;19916;-66
2022/08/29 04:45:03;;;;;;;;;;;;;;;;;;6242000;23;19954;-66
2022/08/29 04:47:29;;;;;;;;;;;;;;;;;;6243941;23;19914;-66
2022/08/29 04:49:55;;;;;;;;;;;;;;;;;;6241627;23;20344;-66
2022/08/29 04:52:21;;;;;;;;;;;;;;;;;;6243827;23;19914;-68
2022/08/29 04:54:47;;;;;;;;;;;;;;;;;;6216523;23;19911;-65
2022/08/29 04:57:13;;;;;;;;;;;;;;;;;;6243884;23;19917;-67
2022/08/29 04:59:38;;;;;;;;;;;;;;;;;;6243192;23;19914;-68
2022/08/29 05:02:04;;;;;;;;;;;;;;;;;;6243561;23;20340;-66
2022/08/29 05:04:30;;;;;;;;;;;;;;;;;;6243537;23;19977;-66
2022/08/29 05:06:56;;;;;;;;;;;;;;;;;;6243312;23;19907;-66
2022/08/29 05:09:21;;;;;;;;;;;;;;;;;;6243463;23;19915;-67
2022/08/29 05:11:47;;;;;;;;;;;;;;;;;;6243454;23;19907;-67
2022/08/29 05:14:13;;;;;;;;;;;;;;;;;;6243769;23;19909;-66
2022/08/29 05:16:38;;;;;;;;;;;;;;;;;;6243370;23;19915;-67
2022/08/29 05:19:04;;;;;;;;;;;;;;;;;;6243443;23;20158;-67
2022/08/29 05:21:30;;;;;;;;;;;;;;;;;;6244368;23;19914;-67
2022/08/29 05:23:56;;;;;;;;;;;;;;;;;;6244083;23;19907;-65
2022/08/29 05:26:22;;;;;;;;;;;;;;;;;;6243869;23;20344;-67
2022/08/29 05:28:48;;;;;;;;;;;;;;;;;;6242916;23;19915;-66
2022/08/29 05:31:14;;;;;;;;;;;;;;;;;;6244054;22;19908;-66
2022/08/29 05:33:39;;;;;;;;;;;;;;;;;;6243409;23;19991;-66
2022/08/29 05:36:05;;;;;;;;;;;;;;;;;;6242917;23;19911;-67
2022/08/29 05:38:31;;;;;;;;;;;;;;;;;;6242889;23;19919;-66
2022/08/29 05:40:56;;;;;;;;;;;;;;;;;;6242912;23;19915;-65
2022/08/29 05:43:23;;;;;;;;;;;;;;;;;;6190706;23;19926;-67
2022/08/29 05:45:49;;;;;;;;;;;;;;;;;;6212315;23;19907;-66
2022/08/29 05:48:17;;;;;;;;;;;;;;;;;;6212921;23;20360;-67
2022/08/29 05:50:42;;;;;;;;;;;;;;;;;;6212694;23;20296;-67
2022/08/29 05:53:08;;;;;;;;;;;;;;;;;;6213631;23;19907;-68
2022/08/29 05:55:33;;;;;;;;;;;;;;;;;;6213032;23;19907;-66
2022/08/29 05:57:59;;;;;;;;;;;;;;;;;;6212674;23;19908;-66
2022/08/29 06:00:25;;;;;;;;;;;;;;;;;;6186029;23;19908;-67
2022/08/29 06:02:51;;;;;;;;;;;;;;;;;;6212317;23;19904;-66
2022/08/29 06:05:16;;;;;;;;;;;;;;;;;;6186101;23;20230;-68
2022/08/29 06:07:42;;;;;;;;;;;;;;;;;;6212476;23;19958;-67
2022/08/29 06:10:07;;;;;;;;;;;;;;;;;;6212568;23;19985;-66
2022/08/29 06:12:33;;;;;;;;;;;;;;;;;;6212637;23;19907;-66
2022/08/29 06:14:59;;;;;;;;;;;;;;;;;;6212386;23;20241;-66
2022/08/29 06:17:26;;;;;;;;;;;;;;;;;;6212579;23;19912;-67
2022/08/29 06:19:52;;;;;;;;;;;;;;;;;;6212126;23;20023;-67
2022/08/29 06:22:21;;;;;;;;;;;;;;;;;;6212583;23;19932;-67
2022/08/29 06:24:47;;;;;;;;;;;;;;;;;;6212115;23;19935;-66
2022/08/29 06:27:12;;;;;;;;;;;;;;;;;;6213660;23;19908;-68
2022/08/29 06:29:38;;;;;;;;;;;;;;;;;;6186120;23;19915;-65
2022/08/29 06:32:04;;;;;;;;;;;;;;;;;;6212336;23;20002;-65
2022/08/29 06:34:30;;;;;;;;;;;;;;;;;;6212510;23;19948;-65
2022/08/29 06:36:56;;;;;;;;;;;;;;;;;;6212183;23;19915;-67
2022/08/29 06:39:21;;;;;;;;;;;;;;;;;;6212280;23;19986;-68
2022/08/29 06:41:47;;;;;;;;;;;;;;;;;;6211903;23;19942;-66
2022/08/29 06:44:13;;;;;;;;;;;;;;;;;;6212485;23;19915;-67
2022/08/29 06:46:38;;;;;;;;;;;;;;;;;;6212365;23;19907;-65
2022/08/29 06:49:04;;;;;;;;;;;;;;;;;;6212004;23;19916;-66
2022/08/29 06:51:31;;;;;;;;;;;;;;;;;;6211884;23;20338;-67
2022/08/29 06:53:57;;;;;;;;;;;;;;;;;;6211759;23;19907;-67
2022/08/29 06:56:23;;;;;;;;;;;;;;;;;;6212366;23;20251;-67
2022/08/29 06:58:48;;;;;;;;;;;;;;;;;;6211929;23;19912;-66
2022/08/29 07:01:14;;;;;;;;;;;;;;;;;;6211948;23;19969;-66
2022/08/29 07:03:40;;;;;;;;;;;;;;;;;;6212310;23;19994;-65
2022/08/29 07:06:05;;;;;;;;;;;;;;;;;;6185352;23;19908;-67
2022/08/29 07:08:31;;;;;;;;;;;;;;;;;;6212286;23;19912;-67
2022/08/29 07:10:57;;;;;;;;;;;;;;;;;;6211595;23;20002;-65
2022/08/29 07:13:22;;;;;;;;;;;;;;;;;;6212691;23;19912;-67
2022/08/29 07:15:48;;;;;;;;;;;;;;;;;;6211885;23;19914;-67
2022/08/29 07:18:14;;;;;;;;;;;;;;;;;;6212162;23;19907;-67
2022/08/29 07:20:40;;;;;;;;;;;;;;;;;;6211813;23;20261;-67
2022/08/29 07:23:05;;;;;;;;;;;;;;;;;;6212154;23;20011;-66
2022/08/29 07:25:31;;;;;;;;;;;;;;;;;;6212816;23;19907;-67
2022/08/29 07:27:57;;;;;;;;;;;;;;;;;;6211802;23;19922;-67
2022/08/29 07:30:22;;;;;;;;;;;;;;;;;;6211854;23;19922;-65
2022/08/29 07:32:48;;;;;;;;;;;;;;;;;;6211719;23;19935;-67
2022/08/29 07:35:14;;;;;;;;;;;;;;;;;;6185394;23;19994;-68
2022/08/29 07:37:39;;;;;;;;;;;;;;;;;;6208178;23;19908;-66
2022/08/29 07:40:05;;;;;;;;;;;;;;;;;;6211607;23;19918;-67
2022/08/29 07:42:31;;;;;;;;;;;;;;;;;;6211712;23;20361;-68
2022/08/29 07:44:56;;;;;;;;;;;;;;;;;;6211722;23;19970;-67
2022/08/29 07:47:25;;;;;;;;;;;;;;;;;;6211823;23;19920;-67
2022/08/29 07:49:51;;;;;;;;;;;;;;;;;;6211230;23;19943;-68
2022/08/29 07:52:16;;;;;;;;;;;;;;;;;;6212232;23;19931;-67
2022/08/29 07:54:42;;;;;;;;;;;;;;;;;;6211951;23;20272;-68
2022/08/29 07:57:08;;;;;;;;;;;;;;;;;;6211521;23;19907;-66
2022/08/29 07:59:33;;;;;;;;;;;;;;;;;;6211788;23;19911;-68
2022/08/29 08:01:59;;;;;;;;;;;;;;;;;;6212024;23;20382;-67
2022/08/29 08:04:25;;;;;;;;;;;;;;;;;;6212187;23;19994;-66
2022/08/29 08:06:50;;;;;;;;;;;;;;;;;;6213422;23;19915;-67
2022/08/29 08:09:16;;;;;;;;;;;;;;;;;;6213870;23;19919;-68
2022/08/29 08:11:42;;;;;;;;;;;;;;;;;;6213625;23;19915;-68
2022/08/29 08:14:07;;;;;;;;;;;;;;;;;;6213224;23;20263;-67
2022/08/29 08:16:33;;;;;;;;;;;;;;;;;;6213550;23;19908;-66
2022/08/29 08:18:59;;;;;;;;;;;;;;;;;;6213063;23;19908;-66
2022/08/29 08:21:24;;;;;;;;;;;;;;;;;;6186895;23;19958;-67
2022/08/29 08:23:51;;;;;;;;;;;;;;;;;;6213662;23;19962;-67
2022/08/29 08:26:16;;;;;;;;;;;;;;;;;;6213366;23;19908;-67
2022/08/29 08:28:42;;;;;;;;;;;;;;;;;;6213517;23;20380;-68
2022/08/29 08:31:08;;;;;;;;;;;;;;;;;;6213091;23;19912;-67
2022/08/29 08:33:33;;;;;;;;;;;;;;;;;;6213432;23;19908;-67
2022/08/29 08:35:59;;;;;;;;;;;;;;;;;;6212839;23;19907;-67
2022/08/29 08:38:25;;;;;;;;;;;;;;;;;;6211692;23;19966;-67
2022/08/29 08:40:51;;;;;;;;;;;;;;;;;;6212979;23;20408;-68
2022/08/29 08:43:17;;;;;;;;;;;;;;;;;;6237823;23;20264;-67
2022/08/29 08:45:43;;;;;;;;;;;;;;;;;;6243931;23;19918;-66
2022/08/29 08:48:09;;;;;;;;;;;;;;;;;;6243496;23;19907;-67
2022/08/29 08:50:35;;;;;;;;;;;;;;;;;;6243582;23;19917;-68
2022/08/29 08:53:01;;;;;;;;;;;;;;;;;;6216869;23;19930;-66
2022/08/29 08:55:27;;;;;;;;;;;;;;;;;;6243573;23;19908;-67
2022/08/29 08:57:52;;;;;;;;;;;;;;;;;;6243700;23;19981;-66
2022/08/29 09:00:18;;;;;;;;;;;;;;;;;;6243449;23;20336;-67
2022/08/29 09:02:44;;;;;;;;;;;;;;;;;;6243308;23;19908;-67
2022/08/29 09:05:09;;;;;;;;;;;;;;;;;;6242987;23;19907;-66
2022/08/29 09:07:35;;;;;;;;;;;;;;;;;;6243477;23;19911;-66
2022/08/29 09:10:01;;;;;;;;;;;;;;;;;;6242817;23;19911;-66
2022/08/29 09:12:28;;;;;;;;;;;;;;;;;;6243376;23;19935;-67
2022/08/29 09:14:54;;;;;;;;;;;;;;;;;;6242541;23;20150;-68
2022/08/29 09:17:20;;;;;;;;;;;;;;;;;;6243560;23;20158;-67
2022/08/29 09:19:45;;;;;;;;;;;;;;;;;;6242956;23;19935;-67
2022/08/29 09:22:11;;;;;;;;;;;;;;;;;;6242580;23;19915;-67
2022/08/29 09:24:37;;;;;;;;;;;;;;;;;;6243237;23;19911;-68
2022/08/29 09:27:03;;;;;;;;;;;;;;;;;;6242829;23;19911;-68
2022/08/29 09:29:28;;;;;;;;;;;;;;;;;;6243172;23;19937;-67
2022/08/29 09:31:54;;;;;;;;;;;;;;;;;;6242593;22;19907;-67
2022/08/29 09:34:20;;;;;;;;;;;;;;;;;;6243092;23;19931;-66
2022/08/29 09:36:45;;;;;;;;;;;;;;;;;;6243005;23;19907;-67
2022/08/29 09:39:11;;;;;;;;;;;;;;;;;;6242446;23;20385;-66
2022/08/29 09:41:37;;;;;;;;;;;;;;;;;;6242336;23;19907;-67
2022/08/29 09:44:03;;;;;;;;;;;;;;;;;;6242636;23;19919;-65
2022/08/29 09:46:28;;;;;;;;;;;;;;;;;;6242800;23;19907;-66
2022/08/29 09:48:54;;;;;;;;;;;;;;;;;;6242410;23;20313;-67
2022/08/29 09:51:21;;;;;;;;;;;;;;;;;;6242740;23;20237;-67
2022/08/29 09:53:46;;;;;;;;;;;;;;;;;;6243487;23;19914;-67
2022/08/29 09:56:12;;;;;;;;;;;;;;;;;;6242828;23;19907;-67
2022/08/29 09:58:38;;;;;;;;;;;;;;;;;;6242964;23;19954;-67
2022/08/29 10:01:03;;;;;;;;;;;;;;;;;;6242558;23;19908;-68
2022/08/29 10:03:29;;;;;;;;;;;;;;;;;;6242977;23;19914;-68
2022/08/29 10:05:55;;;;;;;;;;;;;;;;;;6242518;23;19934;-67
2022/08/29 10:08:20;;;;;;;;;;;;;;;;;;6242803;23;19912;-67
2022/08/29 10:10:46;;;;;;;;;;;;;;;;;;6215775;23;19907;-67
2022/08/29 10:13:12;;;;;;;;;;;;;;;;;;6242376;23;20026;-66
2022/08/29 10:15:37;;;;;;;;;;;;;;;;;;6216281;23;19942;-68
2022/08/29 10:18:23;;;;;;;;;;;;;;;;;;6242365;23;19914;-68
2022/08/29 10:20:49;;;;;;;;;;;;;;;;;;6242730;23;19914;-69
2022/08/29 10:23:14;;;;;;;;;;;;;;;;;;6216240;23;20251;-68
2022/08/29 10:25:40;;;;;;;;;;;;;;;;;;6242592;23;19961;-67
2022/08/29 10:28:05;;;;;;;;;;;;;;;;;;6242158;23;20336;-68
2022/08/29 10:30:31;;;;;;;;;;;;;;;;;;6242486;23;19915;-66
2022/08/29 10:32:57;;;;;;;;;;;;;;;;;;6242205;22;19907;-68
2022/08/29 10:35:22;;;;;;;;;;;;;;;;;;6240726;23;19919;-68
2022/08/29 10:37:48;;;;;;;;;;;;;;;;;;6243153;23;19907;-66
2022/08/29 10:40:14;;;;;;;;;;;;;;;;;;6242247;23;19916;-67
2022/08/29 10:42:39;;;;;;;;;;;;;;;;;;6242409;23;19916;-66
2022/08/29 10:45:05;;;;;;;;;;;;;;;;;;6242199;23;19914;-68
2022/08/29 10:47:31;;;;;;;;;;;;;;;;;;6215636;23;19904;-66
2022/08/29 10:49:56;;;;;;;;;;;;;;;;;;6242124;23;19916;-67
2022/08/29 10:52:22;;;;;;;;;;;;;;;;;;6242248;23;19907;-66
2022/08/29 10:54:48;;;;;;;;;;;;;;;;;;6242419;23;19935;-66
2022/08/29 10:57:14;;;;;;;;;;;;;;;;;;6241847;23;19954;-68
2022/08/29 10:59:41;;;;;;;;;;;;;;;;;;6242430;23;19908;-67
2022/08/29 11:02:07;;;;;;;;;;;;;;;;;;6241708;23;20214;-68
2022/08/29 11:04:33;;;;;;;;;;;;;;;;;;6242413;23;19998;-66
2022/08/29 11:06:58;;;;;;;;;;;;;;;;;;6242094;23;19994;-69
2022/08/29 11:09:24;;;;;;;;;;;;;;;;;;6216012;23;19924;-67
2022/08/29 11:11:49;;;;;;;;;;;;;;;;;;6242233;23;19908;-66
2022/08/29 11:14:15;;;;;;;;;;;;;;;;;;6242158;23;19908;-66
2022/08/29 11:16:41;;;;;;;;;;;;;;;;;;6242187;23;19907;-67
2022/08/29 11:19:07;;;;;;;;;;;;;;;;;;6241749;23;19908;-67
2022/08/29 11:21:33;;;;;;;;;;;;;;;;;;6242252;23;19911;-67
2022/08/29 11:24:02;;;;;;;;;;;;;;;;;;6240332;23;19907;-68
2022/08/29 11:26:27;;;;;;;;;;;;;;;;;;6242142;23;19915;-67
2022/08/29 11:28:53;;;;;;;;;;;;;;;;;;6242587;23;19922;-67
2022/08/29 11:31:19;;;;;;;;;;;;;;;;;;6241787;22;19934;-69
2022/08/29 11:33:44;;;;;;;;;;;;;;;;;;6242569;23;19908;-67
2022/08/29 11:36:10;;;;;;;;;;;;;;;;;;6241639;23;19990;-67
2022/08/29 11:38:36;;;;;;;;;;;;;;;;;;6242360;23;19911;-66
2022/08/29 11:41:01;;;;;;;;;;;;;;;;;;6239942;23;19907;-67
2022/08/29 11:43:27;;;;;;;;;;;;;;;;;;6241990;23;19915;-67
2022/08/29 11:45:53;;;;;;;;;;;;;;;;;;6242268;23;20351;-66
2022/08/29 11:48:18;;;;;;;;;;;;;;;;;;6215178;23;19935;-68
2022/08/29 11:50:44;;;;;;;;;;;;;;;;;;6215322;23;20186;-66
2022/08/29 11:53:10;;;;;;;;;;;;;;;;;;6241568;23;20002;-67
2022/08/29 11:55:35;;;;;;;;;;;;;;;;;;6242114;23;19962;-67
2022/08/29 11:58:01;;;;;;;;;;;;;;;;;;6241969;23;19938;-68
2022/08/29 12:00:27;;;;;;;;;;;;;;;;;;6242387;23;19930;-66
2022/08/29 12:02:52;;;;;;;;;;;;;;;;;;6242047;23;19911;-67
2022/08/29 12:05:19;;;;;;;;;;;;;;;;;;6241882;23;19907;-67
2022/08/29 12:07:47;;;;;;;;;;;;;;;;;;6241993;23;20260;-68
2022/08/29 12:10:13;;;;;;;;;;;;;;;;;;6215130;23;20298;-68
2022/08/29 12:12:38;;;;;;;;;;;;;;;;;;6242038;23;19907;-68
2022/08/29 12:15:04;;;;;;;;;;;;;;;;;;6241733;23;19907;-67
2022/08/29 12:17:30;;;;;;;;;;;;;;;;;;6242087;23;20284;-67
2022/08/29 12:19:55;;;;;;;;;;;;;;;;;;6242612;23;19930;-70
2022/08/29 12:22:21;;;;;;;;;;;;;;;;;;6241610;23;20363;-68
2022/08/29 12:24:47;;;;;;;;;;;;;;;;;;6242008;23;19914;-68
2022/08/29 12:27:13;;;;;;;;;;;;;;;;;;6241656;23;19911;-68
2022/08/29 12:29:38;;;;;;;;;;;;;;;;;;6241874;23;19951;-68
2022/08/29 12:32:04;;;;;;;;;;;;;;;;;;6241614;22;19930;-67
2022/08/29 12:34:30;;;;;;;;;;;;;;;;;;6242059;23;19907;-68
2022/08/29 12:36:55;;;;;;;;;;;;;;;;;;6242376;23;19908;-67
2022/08/29 12:39:21;;;;;;;;;;;;;;;;;;6241886;23;19954;-67
2022/08/29 12:41:48;;;;;;;;;;;;;;;;;;6241657;23;20002;-67
2022/08/29 12:44:15;;;;;;;;;;;;;;;;;;6241706;23;20312;-67
2022/08/29 12:46:41;;;;;;;;;;;;;;;;;;6241999;23;19907;-67
2022/08/29 12:49:06;;;;;;;;;;;;;;;;;;6242091;23;20340;-67
2022/08/29 12:51:32;;;;;;;;;;;;;;;;;;6244020;23;20084;-66
2022/08/29 12:53:58;;;;;;;;;;;;;;;;;;6243982;23;19907;-67
2022/08/29 12:56:24;;;;;;;;;;;;;;;;;;6216516;23;20336;-68
2022/08/29 12:58:50;;;;;;;;;;;;;;;;;;6244194;23;19907;-67
2022/08/29 13:01:16;;;;;;;;;;;;;;;;;;6243204;23;20452;-67
2022/08/29 13:03:41;;;;;;;;;;;;;;;;;;6243665;23;19913;-67
2022/08/29 13:06:07;;;;;;;;;;;;;;;;;;6243108;23;19907;-67
2022/08/29 13:08:33;;;;;;;;;;;;;;;;;;6243950;23;20272;-67
2022/08/29 13:10:58;;;;;;;;;;;;;;;;;;6243507;23;19911;-67
2022/08/29 13:13:24;;;;;;;;;;;;;;;;;;6216914;23;19907;-67
2022/08/29 13:15:49;;;;;;;;;;;;;;;;;;6243381;23;20281;-66
2022/08/29 13:18:15;;;;;;;;;;;;;;;;;;6242904;23;20391;-67
2022/08/29 13:20:47;;;;;;;;;;;;;;;;;;6242954;23;19934;-66
2022/08/29 13:23:16;;;;;;;;;;;;;;;;;;6242757;23;19915;-66
2022/08/29 13:25:41;;;;;;;;;;;;;;;;;;6243330;23;19907;-66
2022/08/29 13:28:07;;;;;;;;;;;;;;;;;;6243220;23;19990;-66
2022/08/29 13:30:32;;;;;;;;;;;;;;;;;;6243638;23;19924;-66
2022/08/29 13:32:58;;;;;;;;;;;;;;;;;;6191253;23;19907;-67
2022/08/29 13:35:23;;;;;;;;;;;;;;;;;;6243275;23;20364;-68
2022/08/29 13:37:49;;;;;;;;;;;;;;;;;;6243510;23;19990;-67
2022/08/29 13:40:15;;;;;;;;;;;;;;;;;;6216176;23;20366;-65
2022/08/29 13:42:42;;;;;;;;;;;;;;;;;;6243005;23;19954;-65
2022/08/29 13:45:07;;;;;;;;;;;;;;;;;;6242960;23;19907;-67
2022/08/29 13:47:34;;;;;;;;;;;;;;;;;;6216686;23;20394;-66
2022/08/29 13:49:59;;;;;;;;;;;;;;;;;;6243289;23;19916;-67
2022/08/29 13:52:25;;;;;;;;;;;;;;;;;;6216012;23;19984;-66
2022/08/29 13:54:50;;;;;;;;;;;;;;;;;;6243280;23;19914;-66
2022/08/29 13:57:16;;;;;;;;;;;;;;;;;;6242835;23;19907;-65
2022/08/29 13:59:42;;;;;;;;;;;;;;;;;;6242865;23;19908;-66
2022/08/29 14:02:07;;;;;;;;;;;;;;;;;;6242486;23;19908;-67
2022/08/29 14:04:33;;;;;;;;;;;;;;;;;;6242961;23;19919;-66
2022/08/29 14:06:58;;;;;;;;;;;;;;;;;;6242728;23;19915;-65
2022/08/29 14:09:26;;;;;;;;;;;;;;;;;;6240860;23;19923;-65
2022/08/29 14:11:52;;;;;;;;;;;;;;;;;;6242658;23;19981;-68
2022/08/29 14:14:18;;;;;;;;;;;;;;;;;;6242260;23;20336;-65
2022/08/29 14:16:44;;;;;;;;;;;;;;;;;;6242722;23;20278;-65
2022/08/29 14:19:10;;;;;;;;;;;;;;;;;;6242220;23;19907;-66
2022/08/29 14:21:35;;;;;;;;;;;;;;;;;;6242711;23;19911;-67
2022/08/29 14:24:01;;;;;;;;;;;;;;;;;;6215968;23;19907;-66
2022/08/29 14:26:27;;;;;;;;;;;;;;;;;;6242350;23;19923;-66
2022/08/29 14:28:52;;;;;;;;;;;;;;;;;;6243165;23;20367;-66
2022/08/29 14:31:18;;;;;;;;;;;;;;;;;;6242203;22;19931;-65
2022/08/29 14:33:44;;;;;;;;;;;;;;;;;;6242580;23;19970;-67
2022/08/29 14:36:09;;;;;;;;;;;;;;;;;;6241894;23;19907;-67
2022/08/29 14:38:35;;;;;;;;;;;;;;;;;;6242560;23;20248;-65
2022/08/29 14:41:00;;;;;;;;;;;;;;;;;;6241832;23;19907;-67
2022/08/29 14:43:26;;;;;;;;;;;;;;;;;;6241579;23;19915;-66
2022/08/29 14:45:52;;;;;;;;;;;;;;;;;;6242022;23;19934;-64
2022/08/29 14:48:17;;;;;;;;;;;;;;;;;;6241339;23;19907;-65
2022/08/29 14:50:43;;;;;;;;;;;;;;;;;;6242512;23;19954;-68
2022/08/29 14:53:09;;;;;;;;;;;;;;;;;;6241743;23;19908;-68
2022/08/29 14:55:35;;;;;;;;;;;;;;;;;;6215524;23;19993;-67
2022/08/29 14:58:00;;;;;;;;;;;;;;;;;;6241755;23;20017;-67
2022/08/29 15:00:26;;;;;;;;;;;;;;;;;;6242121;23;19911;-67
2022/08/29 15:02:52;;;;;;;;;;;;;;;;;;6242845;23;19939;-67
2022/08/29 15:05:17;;;;;;;;;;;;;;;;;;6241998;23;19939;-67
2022/08/29 15:07:43;;;;;;;;;;;;;;;;;;6242261;23;20255;-66
2022/08/29 15:10:08;;;;;;;;;;;;;;;;;;6241642;23;19915;-66
2022/08/29 15:12:34;;;;;;;;;;;;;;;;;;6241606;23;19954;-66
2022/08/29 15:15:00;;;;;;;;;;;;;;;;;;6241912;23;20496;-66
2022/08/29 15:17:26;;;;;;;;;;;;;;;;;;6240872;23;19914;-67
2022/08/29 15:19:51;;;;;;;;;;;;;;;;;;6241882;23;19907;-67
2022/08/29 15:22:17;;;;;;;;;;;;;;;;;;6241208;23;19907;-66
2022/08/29 15:24:42;;;;;;;;;;;;;;;;;;6241440;23;19919;-66
2022/08/29 15:27:08;;;;;;;;;;;;;;;;;;6241277;23;19914;-65
2022/08/29 15:29:33;;;;;;;;;;;;;;;;;;6241133;23;19938;-65
2022/08/29 15:31:59;;;;;;;;;;;;;;;;;;6241492;22;19942;-66
2022/08/29 15:34:25;;;;;;;;;;;;;;;;;;6214778;23;19918;-67
2022/08/29 15:36:51;;;;;;;;;;;;;;;;;;6241619;23;19919;-67
2022/08/29 15:39:16;;;;;;;;;;;;;;;;;;6241082;23;19908;-67
2022/08/29 15:41:42;;;;;;;;;;;;;;;;;;6241397;23;19908;-67
2022/08/29 15:44:08;;;;;;;;;;;;;;;;;;6241578;23;19915;-66
2022/08/29 15:46:33;;;;;;;;;;;;;;;;;;6241110;23;19907;-68
2022/08/29 15:48:59;;;;;;;;;;;;;;;;;;6239853;23;19912;-67
2022/08/29 15:51:24;;;;;;;;;;;;;;;;;;6240941;23;19907;-68
2022/08/29 15:53:50;;;;;;;;;;;;;;;;;;6241606;23;19914;-67
2022/08/29 15:56:16;;;;;;;;;;;;;;;;;;6241123;23;19908;-68
2022/08/29 15:58:42;;;;;;;;;;;;;;;;;;6241809;23;19907;-67
2022/08/29 16:01:08;;;;;;;;;;;;;;;;;;6241446;23;19978;-67
2022/08/29 16:03:33;;;;;;;;;;;;;;;;;;6240926;23;19946;-67
2022/08/29 16:05:59;;;;;;;;;;;;;;;;;;6241816;23;19907;-67
2022/08/29 16:08:25;;;;;;;;;;;;;;;;;;6241295;23;19907;-68
2022/08/29 16:10:50;;;;;;;;;;;;;;;;;;6241267;23;19938;-67
2022/08/29 16:13:16;;;;;;;;;;;;;;;;;;6241097;23;19961;-67
2022/08/29 16:15:41;;;;;;;;;;;;;;;;;;6241444;23;19907;-67
2022/08/29 16:18:07;;;;;;;;;;;;;;;;;;6214966;23;20126;-66
2022/08/29 16:20:33;;;;;;;;;;;;;;;;;;6241319;23;20249;-67
2022/08/29 16:22:59;;;;;;;;;;;;;;;;;;6242018;23;19907;-67
2022/08/29 16:25:24;;;;;;;;;;;;;;;;;;6243181;23;19915;-67
2022/08/29 16:27:50;;;;;;;;;;;;;;;;;;6243665;23;20344;-66
2022/08/29 16:30:16;;;;;;;;;;;;;;;;;;6243052;23;19915;-66
2022/08/29 16:32:41;;;;;;;;;;;;;;;;;;6243891;22;19914;-66
2022/08/29 16:35:07;;;;;;;;;;;;;;;;;;6243794;23;19930;-65
2022/08/29 16:37:32;;;;;;;;;;;;;;;;;;6243221;23;20367;-66
2022/08/29 16:39:58;;;;;;;;;;;;;;;;;;6244228;23;19922;-66
2022/08/29 16:42:24;;;;;;;;;;;;;;;;;;6243250;23;19915;-68
2022/08/29 16:44:50;;;;;;;;;;;;;;;;;;6243552;23;19913;-68
2022/08/29 16:47:16;;;;;;;;;;;;;;;;;;6243128;23;19915;-68
2022/08/29 16:49:42;;;;;;;;;;;;;;;;;;6243740;23;19916;-68
2022/08/29 16:52:07;;;;;;;;;;;;;;;;;;6243366;23;20340;-67
2022/08/29 16:54:33;;;;;;;;;;;;;;;;;;6243452;23;20325;-67
2022/08/29 16:56:59;;;;;;;;;;;;;;;;;;6243533;23;19971;-66
2022/08/29 16:59:24;;;;;;;;;;;;;;;;;;6243541;23;20252;-67
2022/08/29 17:01:50;;;;;;;;;;;;;;;;;;6191440;23;19911;-66
2022/08/29 17:04:16;;;;;;;;;;;;;;;;;;6243606;23;19914;-67
2022/08/29 17:06:42;;;;;;;;;;;;;;;;;;6243319;23;20263;-68
2022/08/29 17:16:24;;;;;;;;;;;;;;;;;;6243006;23;19911;-69
2022/08/29 17:18:50;;;;;;;;;;;;;;;;;;6243589;23;19914;-68
2022/08/29 17:21:16;;;;;;;;;;;;;;;;;;6243505;23;19922;-69
2022/08/29 17:23:41;;;;;;;;;;;;;;;;;;6243978;23;19908;-67
2022/08/29 17:26:07;;;;;;;;;;;;;;;;;;6243264;23;19907;-68
2022/08/29 17:28:33;;;;;;;;;;;;;;;;;;6242923;23;19919;-66
2022/08/29 17:30:58;;;;;;;;;;;;;;;;;;6243647;23;19943;-67
2022/08/29 17:33:24;;;;;;;;;;;;;;;;;;6242714;22;19935;-68
2022/08/29 17:35:50;;;;;;;;;;;;;;;;;;6243304;23;19986;-68
2022/08/29 17:38:16;;;;;;;;;;;;;;;;;;6243263;23;20332;-67
2022/08/29 17:40:41;;;;;;;;;;;;;;;;;;6242838;23;19990;-67
2022/08/29 17:43:07;;;;;;;;;;;;;;;;;;6242728;23;19915;-67
2022/08/29 17:45:34;;;;;;;;;;;;;;;;;;6242871;23;19918;-68
2022/08/29 17:48:00;;;;;;;;;;;;;;;;;;6242792;23;19953;-68
2022/08/29 17:50:26;;;;;;;;;;;;;;;;;;6242820;23;19947;-69
2022/08/29 17:52:52;;;;;;;;;;;;;;;;;;6242975;23;20306;-66
2022/08/29 17:55:18;;;;;;;;;;;;;;;;;;6243316;23;19907;-68
2022/08/29 17:57:44;;;;;;;;;;;;;;;;;;6242556;23;19907;-68
2022/08/29 18:00:09;;;;;;;;;;;;;;;;;;6242706;23;19914;-67
2022/08/29 18:02:38;;;;;;;;;;;;;;;;;;6242694;23;19907;-68
2022/08/29 18:05:04;;;;;;;;;;;;;;;;;;6243054;23;20030;-68
2022/08/29 18:07:29;;;;;;;;;;;;;;;;;;6242927;23;19908;-67
2022/08/29 18:09:55;;;;;;;;;;;;;;;;;;6243344;23;19985;-68
2022/08/29 18:12:21;;;;;;;;;;;;;;;;;;6242498;23;19907;-69
2022/08/29 18:14:47;;;;;;;;;;;;;;;;;;6242790;23;20294;-68
2022/08/29 18:17:13;;;;;;;;;;;;;;;;;;6240973;23;20109;-68
2022/08/29 18:19:38;;;;;;;;;;;;;;;;;;6242677;23;20354;-67
2022/08/29 18:22:04;;;;;;;;;;;;;;;;;;6242428;23;19914;-68
2022/08/29 18:24:29;;;;;;;;;;;;;;;;;;6242258;23;19977;-68
2022/08/29 18:26:55;;;;;;;;;;;;;;;;;;6242902;23;19915;-68
2022/08/29 18:29:21;;;;;;;;;;;;;;;;;;6242565;23;19918;-68
2022/08/29 18:31:46;;;;;;;;;;;;;;;;;;6242980;22;19933;-68
2022/08/29 18:34:12;;;;;;;;;;;;;;;;;;6243451;23;19995;-67
2022/08/29 18:36:38;;;;;;;;;;;;;;;;;;6242750;23;20268;-67
2022/08/29 18:39:04;;;;;;;;;;;;;;;;;;6216134;23;20013;-69
2022/08/29 18:41:30;;;;;;;;;;;;;;;;;;6242670;23;20336;-68
2022/08/29 18:43:57;;;;;;;;;;;;;;;;;;6242644;23;19991;-67
2022/08/29 18:46:23;;;;;;;;;;;;;;;;;;6242109;23;20002;-68
2022/08/29 18:48:49;;;;;;;;;;;;;;;;;;6242538;23;19945;-68
2022/08/29 18:51:14;;;;;;;;;;;;;;;;;;6242864;23;19918;-68
2022/08/29 18:53:40;;;;;;;;;;;;;;;;;;6242420;23;19949;-68
2022/08/29 18:56:06;;;;;;;;;;;;;;;;;;6216192;23;19907;-68
2022/08/29 18:58:31;;;;;;;;;;;;;;;;;;6242501;23;19907;-68
2022/08/29 19:00:57;;;;;;;;;;;;;;;;;;6243042;23;19907;-68
2022/08/29 19:03:23;;;;;;;;;;;;;;;;;;6242900;23;19916;-70
2022/08/29 19:05:49;;;;;;;;;;;;;;;;;;6243837;23;19995;-68
2022/08/29 19:08:14;;;;;;;;;;;;;;;;;;6242377;23;19936;-68
2022/08/29 19:10:40;;;;;;;;;;;;;;;;;;6242179;23;19915;-68
2022/08/29 19:13:06;;;;;;;;;;;;;;;;;;6242304;23;19961;-68
2022/08/29 19:15:32;;;;;;;;;;;;;;;;;;6242302;23;19914;-67
2022/08/29 19:17:58;;;;;;;;;;;;;;;;;;6242556;23;19908;-66
2022/08/29 19:23:08;;;;;;;;;;;;;;;;;;6242084;23;19907;-68
2022/08/29 19:25:33;;;;;;;;;;;;;;;;;;6242418;23;20347;-67
2022/08/29 19:27:59;;;;;;;;;;;;;;;;;;6242205;23;19907;-67
2022/08/29 19:30:25;;;;;;;;;;;;;;;;;;6241968;23;19923;-69
2022/08/29 19:32:50;;;;;;;;;;;;;;;;;;6242461;22;19907;-67
2022/08/29 19:35:16;;;;;;;;;;;;;;;;;;6242487;23;19907;-68
2022/08/29 19:37:42;;;;;;;;;;;;;;;;;;6238081;23;20033;-68
2022/08/29 19:40:08;;;;;;;;;;;;;;;;;;6242254;23;19965;-68
2022/08/29 19:42:33;;;;;;;;;;;;;;;;;;6242145;23;19919;-68
2022/08/29 19:44:59;;;;;;;;;;;;;;;;;;6242517;23;20285;-68
2022/08/29 19:47:25;;;;;;;;;;;;;;;;;;6242119;23;19919;-69
2022/08/29 19:49:51;;;;;;;;;;;;;;;;;;6242212;23;20329;-69
2022/08/29 19:52:16;;;;;;;;;;;;;;;;;;6242178;23;20368;-67
2022/08/29 19:54:42;;;;;;;;;;;;;;;;;;6242168;23;19911;-68
2022/08/29 19:57:08;;;;;;;;;;;;;;;;;;6241994;23;19981;-67
2022/08/29 19:59:33;;;;;;;;;;;;;;;;;;6244221;23;19994;-68
2022/08/29 20:01:59;;;;;;;;;;;;;;;;;;6244499;23;19914;-67
2022/08/29 20:04:25;;;;;;;;;;;;;;;;;;6244525;23;19986;-68
2022/08/29 20:06:51;;;;;;;;;;;;;;;;;;6244943;23;20340;-68
2022/08/29 20:09:17;;;;;;;;;;;;;;;;;;6242688;23;19912;-67
2022/08/29 20:11:42;;;;;;;;;;;;;;;;;;6244244;23;19973;-68
2022/08/29 20:14:08;;;;;;;;;;;;;;;;;;6244356;23;19908;-68
2022/08/29 20:16:34;;;;;;;;;;;;;;;;;;6244145;23;19907;-67
2022/08/29 20:19:02;;;;;;;;;;;;;;;;;;6244332;23;19907;-66
2022/08/29 20:21:28;;;;;;;;;;;;;;;;;;6217199;23;19907;-67
2022/08/29 20:23:53;;;;;;;;;;;;;;;;;;6218004;23;19950;-66
2022/08/29 20:26:19;;;;;;;;;;;;;;;;;;6218215;23;20315;-67